Ana Sayfa
METAR-TAF:

METAR-TAF

Havaalanları :

Cambridge, Maryland, Amerika Birleşik Devletleri

Enlem: 38-32-22N, Boylam: 076-01-49W, yükseklik: 6 m

Güncel hava durumu gözlemi

Rapor saat 21:15 UTC de 16 dakika önce yapıldı.
Rüzgar güney/güneydoğudan 5 kt
Sıcaklık 10°C
Nem 100%
Basınç 1013 hPa
Görüş mesafesi: 4.8 km
300 ft yükseklikte çok bulutlu
Pus

METAR: KCGE 092115Z AUTO 16005KT 3SM BR OVC003 10/10 A2991 RMK A01

Saat: 16:31 (21:31 UTC)


TAF: eksik

4.000'den fazla havaalanı için hava durumu gözlemleri ve tahminleri (METAR ve TAF raporları).

Kullanılabilir istasyonlar harita üzerinde sarı ve kırmızı noktalarla gösterilir.

İstasyonun adını görmek için fareyi noktanın üzerinde gezdirin.

Sonrasında hava gözlem ve tahminlerini görmek için tıklayın.

Haritayı değiştirmek için: yaklaştırmak için siyah artı işaretli yeşil düğmeye ve uzaklaştırmak için de eksi işaretli düğmeye hızla tıklayın; bitişik haritalar için yeşil okları kullanın.


METAR-TAF: